sensor_id;sensor_type;location;lat;lon;timestamp;P1;durP1;ratioP1;P2;durP2;ratioP2
75289;SDS011;63883;48.996;20.804;2023-04-06T00:01:06;8.93;;;4.57;;
75289;SDS011;63883;48.996;20.804;2023-04-06T00:03:33;7.82;;;4.53;;
75289;SDS011;63883;48.996;20.804;2023-04-06T00:05:59;8.50;;;4.20;;
75289;SDS011;63883;48.996;20.804;2023-04-06T00:08:25;5.93;;;4.15;;
75289;SDS011;63883;48.996;20.804;2023-04-06T00:10:51;8.40;;;4.47;;
75289;SDS011;63883;48.996;20.804;2023-04-06T00:13:17;7.22;;;4.03;;
75289;SDS011;63883;48.996;20.804;2023-04-06T00:15:42;8.43;;;4.22;;
75289;SDS011;63883;48.996;20.804;2023-04-06T00:18:08;9.55;;;4.25;;
75289;SDS011;63883;48.996;20.804;2023-04-06T00:20:34;7.53;;;4.32;;
75289;SDS011;63883;48.996;20.804;2023-04-06T00:23:00;8.48;;;4.18;;
75289;SDS011;63883;48.996;20.804;2023-04-06T00:25:26;8.35;;;4.03;;
75289;SDS011;63883;48.996;20.804;2023-04-06T00:27:52;6.05;;;3.80;;
75289;SDS011;63883;48.996;20.804;2023-04-06T00:30:18;5.97;;;3.83;;
75289;SDS011;63883;48.996;20.804;2023-04-06T00:32:44;7.07;;;3.63;;
75289;SDS011;63883;48.996;20.804;2023-04-06T00:35:09;6.78;;;3.65;;
75289;SDS011;63883;48.996;20.804;2023-04-06T00:37:36;7.15;;;3.63;;
75289;SDS011;63883;48.996;20.804;2023-04-06T00:40:01;5.85;;;3.50;;
75289;SDS011;63883;48.996;20.804;2023-04-06T00:42:28;6.03;;;3.78;;
75289;SDS011;63883;48.996;20.804;2023-04-06T00:44:57;7.72;;;3.72;;
75289;SDS011;63883;48.996;20.804;2023-04-06T00:47:24;7.75;;;3.95;;
75289;SDS011;63883;48.996;20.804;2023-04-06T00:49:51;5.95;;;3.80;;
75289;SDS011;63883;48.996;20.804;2023-04-06T00:52:19;5.18;;;3.25;;
75289;SDS011;63883;48.996;20.804;2023-04-06T00:54:45;6.90;;;3.45;;
75289;SDS011;63883;48.996;20.804;2023-04-06T00:57:11;6.20;;;3.78;;
75289;SDS011;63883;48.996;20.804;2023-04-06T00:59:38;8.35;;;3.80;;
75289;SDS011;63883;48.996;20.804;2023-04-06T01:02:04;7.05;;;4.03;;
75289;SDS011;63883;48.996;20.804;2023-04-06T01:04:31;6.35;;;3.67;;
75289;SDS011;63883;48.996;20.804;2023-04-06T01:06:57;5.82;;;3.60;;
75289;SDS011;63883;48.996;20.804;2023-04-06T01:09:22;6.00;;;3.83;;
75289;SDS011;63883;48.996;20.804;2023-04-06T01:11:48;8.63;;;4.07;;
75289;SDS011;63883;48.996;20.804;2023-04-06T01:14:14;7.53;;;3.60;;
75289;SDS011;63883;48.996;20.804;2023-04-06T01:16:40;6.72;;;3.75;;
75289;SDS011;63883;48.996;20.804;2023-04-06T01:19:10;6.22;;;4.10;;
75289;SDS011;63883;48.996;20.804;2023-04-06T01:21:37;7.60;;;3.88;;
75289;SDS011;63883;48.996;20.804;2023-04-06T01:24:03;6.97;;;3.80;;
75289;SDS011;63883;48.996;20.804;2023-04-06T01:26:30;6.43;;;4.03;;
75289;SDS011;63883;48.996;20.804;2023-04-06T01:28:57;5.13;;;3.42;;
75289;SDS011;63883;48.996;20.804;2023-04-06T01:31:23;6.20;;;3.97;;
75289;SDS011;63883;48.996;20.804;2023-04-06T01:33:49;6.05;;;4.13;;
75289;SDS011;63883;48.996;20.804;2023-04-06T01:36:15;6.53;;;3.92;;
75289;SDS011;63883;48.996;20.804;2023-04-06T01:38:40;7.25;;;3.85;;
75289;SDS011;63883;48.996;20.804;2023-04-06T01:41:07;8.82;;;4.20;;
75289;SDS011;63883;48.996;20.804;2023-04-06T01:43:33;8.63;;;4.60;;
75289;SDS011;63883;48.996;20.804;2023-04-06T01:45:59;6.72;;;3.95;;
75289;SDS011;63883;48.996;20.804;2023-04-06T01:48:26;6.40;;;4.03;;
75289;SDS011;63883;48.996;20.804;2023-04-06T01:50:52;7.43;;;4.40;;
75289;SDS011;63883;48.996;20.804;2023-04-06T01:53:18;7.47;;;4.28;;
75289;SDS011;63883;48.996;20.804;2023-04-06T01:55:44;7.70;;;4.43;;
75289;SDS011;63883;48.996;20.804;2023-04-06T01:58:10;7.20;;;4.30;;
75289;SDS011;63883;48.996;20.804;2023-04-06T02:00:36;7.47;;;4.90;;
75289;SDS011;63883;48.996;20.804;2023-04-06T02:03:03;9.90;;;4.95;;
75289;SDS011;63883;48.996;20.804;2023-04-06T02:05:29;8.27;;;4.43;;
75289;SDS011;63883;48.996;20.804;2023-04-06T02:07:57;8.20;;;4.63;;
75289;SDS011;63883;48.996;20.804;2023-04-06T02:10:22;8.20;;;5.03;;
75289;SDS011;63883;48.996;20.804;2023-04-06T02:12:49;8.57;;;4.65;;
75289;SDS011;63883;48.996;20.804;2023-04-06T02:15:15;10.18;;;4.68;;
75289;SDS011;63883;48.996;20.804;2023-04-06T02:17:41;8.75;;;4.80;;
75289;SDS011;63883;48.996;20.804;2023-04-06T02:20:07;7.95;;;4.60;;
75289;SDS011;63883;48.996;20.804;2023-04-06T02:22:34;7.15;;;4.53;;
75289;SDS011;63883;48.996;20.804;2023-04-06T02:25:01;7.78;;;4.55;;
75289;SDS011;63883;48.996;20.804;2023-04-06T02:27:27;8.02;;;4.28;;
75289;SDS011;63883;48.996;20.804;2023-04-06T02:29:53;7.47;;;4.65;;
75289;SDS011;63883;48.996;20.804;2023-04-06T02:32:19;8.55;;;4.80;;
75289;SDS011;63883;48.996;20.804;2023-04-06T02:34:44;7.25;;;4.00;;
75289;SDS011;63883;48.996;20.804;2023-04-06T02:37:10;10.23;;;5.45;;
75289;SDS011;63883;48.996;20.804;2023-04-06T02:39:36;10.75;;;5.43;;
75289;SDS011;63883;48.996;20.804;2023-04-06T02:42:02;8.25;;;5.28;;
75289;SDS011;63883;48.996;20.804;2023-04-06T02:44:27;8.10;;;5.05;;
75289;SDS011;63883;48.996;20.804;2023-04-06T02:46:53;8.88;;;4.72;;
75289;SDS011;63883;48.996;20.804;2023-04-06T02:49:19;7.63;;;4.25;;
75289;SDS011;63883;48.996;20.804;2023-04-06T02:51:44;7.30;;;4.13;;
75289;SDS011;63883;48.996;20.804;2023-04-06T02:54:10;6.72;;;4.20;;
75289;SDS011;63883;48.996;20.804;2023-04-06T02:56:36;6.47;;;4.30;;
75289;SDS011;63883;48.996;20.804;2023-04-06T02:59:02;7.35;;;3.92;;
75289;SDS011;63883;48.996;20.804;2023-04-06T03:01:27;8.05;;;4.47;;
75289;SDS011;63883;48.996;20.804;2023-04-06T03:03:53;7.65;;;4.18;;
75289;SDS011;63883;48.996;20.804;2023-04-06T03:06:19;7.82;;;4.10;;
75289;SDS011;63883;48.996;20.804;2023-04-06T03:08:45;7.35;;;4.10;;
75289;SDS011;63883;48.996;20.804;2023-04-06T03:11:10;7.15;;;4.25;;
75289;SDS011;63883;48.996;20.804;2023-04-06T03:13:36;7.55;;;4.43;;
75289;SDS011;63883;48.996;20.804;2023-04-06T03:16:04;10.05;;;5.00;;
75289;SDS011;63883;48.996;20.804;2023-04-06T03:18:31;6.55;;;4.13;;
75289;SDS011;63883;48.996;20.804;2023-04-06T03:20:57;7.72;;;4.60;;
75289;SDS011;63883;48.996;20.804;2023-04-06T03:23:23;7.63;;;4.70;;
75289;SDS011;63883;48.996;20.804;2023-04-06T03:25:48;7.53;;;4.50;;
75289;SDS011;63883;48.996;20.804;2023-04-06T03:28:14;9.98;;;4.70;;
75289;SDS011;63883;48.996;20.804;2023-04-06T03:30:41;7.90;;;4.35;;
75289;SDS011;63883;48.996;20.804;2023-04-06T03:33:07;7.15;;;4.40;;
75289;SDS011;63883;48.996;20.804;2023-04-06T03:35:33;6.72;;;4.10;;
75289;SDS011;63883;48.996;20.804;2023-04-06T03:37:59;7.90;;;4.20;;
75289;SDS011;63883;48.996;20.804;2023-04-06T03:40:24;8.07;;;4.40;;
75289;SDS011;63883;48.996;20.804;2023-04-06T03:42:50;6.95;;;4.35;;
75289;SDS011;63883;48.996;20.804;2023-04-06T03:45:16;6.95;;;4.28;;
75289;SDS011;63883;48.996;20.804;2023-04-06T03:47:42;6.35;;;4.00;;
75289;SDS011;63883;48.996;20.804;2023-04-06T03:50:08;5.38;;;3.78;;
75289;SDS011;63883;48.996;20.804;2023-04-06T03:52:34;7.60;;;3.92;;
75289;SDS011;63883;48.996;20.804;2023-04-06T03:55:01;7.70;;;4.70;;
75289;SDS011;63883;48.996;20.804;2023-04-06T03:57:27;5.25;;;3.80;;
75289;SDS011;63883;48.996;20.804;2023-04-06T03:59:52;7.78;;;3.85;;
75289;SDS011;63883;48.996;20.804;2023-04-06T04:02:18;7.80;;;4.05;;
75289;SDS011;63883;48.996;20.804;2023-04-06T04:04:43;6.72;;;4.03;;
75289;SDS011;63883;48.996;20.804;2023-04-06T04:07:09;6.03;;;3.83;;
75289;SDS011;63883;48.996;20.804;2023-04-06T04:09:36;7.57;;;4.72;;
75289;SDS011;63883;48.996;20.804;2023-04-06T04:12:02;8.88;;;4.53;;
75289;SDS011;63883;48.996;20.804;2023-04-06T04:14:28;6.38;;;3.83;;
75289;SDS011;63883;48.996;20.804;2023-04-06T04:16:53;7.32;;;4.00;;
75289;SDS011;63883;48.996;20.804;2023-04-06T04:19:19;8.68;;;4.47;;
75289;SDS011;63883;48.996;20.804;2023-04-06T04:21:45;6.05;;;4.18;;
75289;SDS011;63883;48.996;20.804;2023-04-06T04:24:12;6.78;;;4.32;;
75289;SDS011;63883;48.996;20.804;2023-04-06T04:26:38;7.25;;;4.25;;
75289;SDS011;63883;48.996;20.804;2023-04-06T04:29:05;5.38;;;3.97;;
75289;SDS011;63883;48.996;20.804;2023-04-06T04:31:31;7.68;;;4.38;;
75289;SDS011;63883;48.996;20.804;2023-04-06T04:33:57;7.13;;;4.53;;
75289;SDS011;63883;48.996;20.804;2023-04-06T04:36:25;6.32;;;4.10;;
75289;SDS011;63883;48.996;20.804;2023-04-06T04:38:51;7.60;;;4.32;;
75289;SDS011;63883;48.996;20.804;2023-04-06T04:41:17;8.07;;;4.18;;
75289;SDS011;63883;48.996;20.804;2023-04-06T04:43:44;8.05;;;4.60;;
75289;SDS011;63883;48.996;20.804;2023-04-06T04:46:10;10.10;;;4.65;;
75289;SDS011;63883;48.996;20.804;2023-04-06T04:48:35;7.10;;;4.18;;
75289;SDS011;63883;48.996;20.804;2023-04-06T04:51:01;7.93;;;4.93;;
75289;SDS011;63883;48.996;20.804;2023-04-06T04:53:27;7.90;;;4.45;;
75289;SDS011;63883;48.996;20.804;2023-04-06T04:55:53;6.93;;;4.38;;
75289;SDS011;63883;48.996;20.804;2023-04-06T04:58:18;8.68;;;4.60;;
75289;SDS011;63883;48.996;20.804;2023-04-06T05:00:45;7.57;;;4.43;;
75289;SDS011;63883;48.996;20.804;2023-04-06T05:03:29;7.55;;;4.82;;
75289;SDS011;63883;48.996;20.804;2023-04-06T05:05:55;8.00;;;5.03;;
75289;SDS011;63883;48.996;20.804;2023-04-06T05:08:20;8.15;;;4.63;;
75289;SDS011;63883;48.996;20.804;2023-04-06T05:10:47;8.07;;;4.85;;
75289;SDS011;63883;48.996;20.804;2023-04-06T05:13:13;8.25;;;4.93;;
75289;SDS011;63883;48.996;20.804;2023-04-06T05:15:40;8.32;;;4.82;;
75289;SDS011;63883;48.996;20.804;2023-04-06T05:18:09;8.73;;;5.80;;
75289;SDS011;63883;48.996;20.804;2023-04-06T05:20:35;8.93;;;5.60;;
75289;SDS011;63883;48.996;20.804;2023-04-06T05:23:01;9.43;;;5.30;;
75289;SDS011;63883;48.996;20.804;2023-04-06T05:25:27;9.68;;;5.82;;
75289;SDS011;63883;48.996;20.804;2023-04-06T05:27:53;8.05;;;4.82;;
75289;SDS011;63883;48.996;20.804;2023-04-06T05:30:19;7.85;;;5.25;;
75289;SDS011;63883;48.996;20.804;2023-04-06T05:32:46;8.50;;;5.43;;
75289;SDS011;63883;48.996;20.804;2023-04-06T05:35:12;8.10;;;5.60;;
75289;SDS011;63883;48.996;20.804;2023-04-06T05:37:38;9.88;;;5.63;;
75289;SDS011;63883;48.996;20.804;2023-04-06T05:40:04;8.48;;;5.50;;
75289;SDS011;63883;48.996;20.804;2023-04-06T05:42:40;8.15;;;4.95;;
75289;SDS011;63883;48.996;20.804;2023-04-06T05:45:07;8.75;;;5.13;;
75289;SDS011;63883;48.996;20.804;2023-04-06T05:47:36;9.77;;;5.07;;
75289;SDS011;63883;48.996;20.804;2023-04-06T05:50:02;9.57;;;5.32;;
75289;SDS011;63883;48.996;20.804;2023-04-06T05:52:28;8.63;;;5.43;;
75289;SDS011;63883;48.996;20.804;2023-04-06T05:54:53;9.68;;;5.05;;
75289;SDS011;63883;48.996;20.804;2023-04-06T05:57:19;8.50;;;5.15;;
75289;SDS011;63883;48.996;20.804;2023-04-06T05:59:45;15.73;;;8.73;;
75289;SDS011;63883;48.996;20.804;2023-04-06T06:02:11;11.57;;;6.72;;
75289;SDS011;63883;48.996;20.804;2023-04-06T06:04:37;10.18;;;5.55;;
75289;SDS011;63883;48.996;20.804;2023-04-06T06:07:02;8.65;;;5.43;;
75289;SDS011;63883;48.996;20.804;2023-04-06T06:09:28;10.63;;;6.32;;
75289;SDS011;63883;48.996;20.804;2023-04-06T06:11:54;11.57;;;7.00;;
75289;SDS011;63883;48.996;20.804;2023-04-06T06:14:20;11.85;;;7.03;;
75289;SDS011;63883;48.996;20.804;2023-04-06T06:16:47;10.30;;;6.20;;
75289;SDS011;63883;48.996;20.804;2023-04-06T06:19:12;10.90;;;6.47;;
75289;SDS011;63883;48.996;20.804;2023-04-06T06:21:38;11.43;;;6.53;;
75289;SDS011;63883;48.996;20.804;2023-04-06T06:24:04;9.02;;;5.47;;
75289;SDS011;63883;48.996;20.804;2023-04-06T06:26:30;11.68;;;6.28;;
75289;SDS011;63883;48.996;20.804;2023-04-06T06:28:56;10.77;;;5.97;;
75289;SDS011;63883;48.996;20.804;2023-04-06T06:31:22;11.15;;;6.47;;
75289;SDS011;63883;48.996;20.804;2023-04-06T06:33:48;15.30;;;8.60;;
75289;SDS011;63883;48.996;20.804;2023-04-06T06:38:42;10.43;;;6.32;;
75289;SDS011;63883;48.996;20.804;2023-04-06T06:41:08;12.25;;;6.70;;
75289;SDS011;63883;48.996;20.804;2023-04-06T06:43:33;11.40;;;5.95;;
75289;SDS011;63883;48.996;20.804;2023-04-06T06:45:59;11.35;;;6.43;;
75289;SDS011;63883;48.996;20.804;2023-04-06T06:48:25;8.82;;;5.15;;
75289;SDS011;63883;48.996;20.804;2023-04-06T06:50:51;9.95;;;5.28;;
75289;SDS011;63883;48.996;20.804;2023-04-06T06:53:16;10.57;;;5.57;;
75289;SDS011;63883;48.996;20.804;2023-04-06T06:55:42;8.73;;;5.28;;
75289;SDS011;63883;48.996;20.804;2023-04-06T06:58:09;8.15;;;5.47;;
75289;SDS011;63883;48.996;20.804;2023-04-06T07:00:35;10.07;;;6.22;;
75289;SDS011;63883;48.996;20.804;2023-04-06T07:03:01;8.43;;;5.38;;
75289;SDS011;63883;48.996;20.804;2023-04-06T07:05:27;9.95;;;5.40;;
75289;SDS011;63883;48.996;20.804;2023-04-06T07:07:53;12.65;;;7.30;;
75289;SDS011;63883;48.996;20.804;2023-04-06T07:10:20;12.57;;;7.18;;
75289;SDS011;63883;48.996;20.804;2023-04-06T07:12:45;13.98;;;7.97;;
75289;SDS011;63883;48.996;20.804;2023-04-06T07:15:12;9.35;;;5.15;;
75289;SDS011;63883;48.996;20.804;2023-04-06T07:17:37;9.73;;;5.30;;
75289;SDS011;63883;48.996;20.804;2023-04-06T07:20:03;7.63;;;5.28;;
75289;SDS011;63883;48.996;20.804;2023-04-06T07:22:29;9.55;;;5.28;;
75289;SDS011;63883;48.996;20.804;2023-04-06T07:24:56;8.63;;;4.82;;
75289;SDS011;63883;48.996;20.804;2023-04-06T07:27:21;10.30;;;6.57;;
75289;SDS011;63883;48.996;20.804;2023-04-06T07:29:47;9.65;;;5.75;;
75289;SDS011;63883;48.996;20.804;2023-04-06T07:32:13;10.43;;;6.07;;
75289;SDS011;63883;48.996;20.804;2023-04-06T07:34:38;8.93;;;5.25;;
75289;SDS011;63883;48.996;20.804;2023-04-06T07:37:04;9.20;;;5.20;;
75289;SDS011;63883;48.996;20.804;2023-04-06T07:39:30;8.45;;;5.22;;
75289;SDS011;63883;48.996;20.804;2023-04-06T07:41:56;8.68;;;5.25;;
75289;SDS011;63883;48.996;20.804;2023-04-06T07:44:22;8.77;;;4.85;;
75289;SDS011;63883;48.996;20.804;2023-04-06T07:46:47;14.05;;;7.28;;
75289;SDS011;63883;48.996;20.804;2023-04-06T07:49:13;15.45;;;6.53;;
75289;SDS011;63883;48.996;20.804;2023-04-06T07:51:39;14.23;;;7.00;;
75289;SDS011;63883;48.996;20.804;2023-04-06T07:54:05;9.32;;;5.20;;
75289;SDS011;63883;48.996;20.804;2023-04-06T07:56:31;9.45;;;5.28;;
75289;SDS011;63883;48.996;20.804;2023-04-06T07:58:57;10.73;;;5.60;;
75289;SDS011;63883;48.996;20.804;2023-04-06T08:01:23;9.18;;;4.72;;
75289;SDS011;63883;48.996;20.804;2023-04-06T08:03:50;8.93;;;5.07;;
75289;SDS011;63883;48.996;20.804;2023-04-06T08:06:16;8.00;;;4.80;;
75289;SDS011;63883;48.996;20.804;2023-04-06T08:08:42;9.15;;;4.95;;
75289;SDS011;63883;48.996;20.804;2023-04-06T08:11:08;11.70;;;5.30;;
75289;SDS011;63883;48.996;20.804;2023-04-06T08:13:35;11.52;;;5.60;;
75289;SDS011;63883;48.996;20.804;2023-04-06T08:16:00;10.98;;;6.22;;
75289;SDS011;63883;48.996;20.804;2023-04-06T08:18:27;10.60;;;5.75;;
75289;SDS011;63883;48.996;20.804;2023-04-06T08:20:52;10.07;;;5.90;;
75289;SDS011;63883;48.996;20.804;2023-04-06T08:23:20;11.18;;;5.60;;
75289;SDS011;63883;48.996;20.804;2023-04-06T08:25:45;9.32;;;5.60;;
75289;SDS011;63883;48.996;20.804;2023-04-06T08:28:11;10.38;;;5.78;;
75289;SDS011;63883;48.996;20.804;2023-04-06T08:30:39;11.38;;;6.20;;
75289;SDS011;63883;48.996;20.804;2023-04-06T08:33:05;12.77;;;7.22;;
75289;SDS011;63883;48.996;20.804;2023-04-06T08:35:31;11.63;;;6.15;;
75289;SDS011;63883;48.996;20.804;2023-04-06T08:37:57;9.48;;;5.57;;
75289;SDS011;63883;48.996;20.804;2023-04-06T08:40:23;11.90;;;6.40;;
75289;SDS011;63883;48.996;20.804;2023-04-06T08:42:52;11.25;;;6.32;;
75289;SDS011;63883;48.996;20.804;2023-04-06T08:45:20;11.20;;;6.35;;
75289;SDS011;63883;48.996;20.804;2023-04-06T08:47:50;11.85;;;6.70;;
75289;SDS011;63883;48.996;20.804;2023-04-06T08:50:17;14.07;;;7.20;;
75289;SDS011;63883;48.996;20.804;2023-04-06T08:52:45;17.42;;;9.20;;
75289;SDS011;63883;48.996;20.804;2023-04-06T08:55:15;15.80;;;8.80;;
75289;SDS011;63883;48.996;20.804;2023-04-06T08:57:41;11.07;;;7.18;;
75289;SDS011;63883;48.996;20.804;2023-04-06T09:00:09;14.63;;;8.27;;
75289;SDS011;63883;48.996;20.804;2023-04-06T09:02:38;11.60;;;6.88;;
75289;SDS011;63883;48.996;20.804;2023-04-06T09:05:07;11.32;;;6.40;;
75289;SDS011;63883;48.996;20.804;2023-04-06T09:07:33;11.98;;;6.78;;
75289;SDS011;63883;48.996;20.804;2023-04-06T09:09:59;11.45;;;5.72;;
75289;SDS011;63883;48.996;20.804;2023-04-06T09:12:26;12.15;;;5.80;;
75289;SDS011;63883;48.996;20.804;2023-04-06T09:14:52;13.15;;;6.88;;
75289;SDS011;63883;48.996;20.804;2023-04-06T09:17:19;11.05;;;6.70;;
75289;SDS011;63883;48.996;20.804;2023-04-06T09:19:49;11.10;;;6.15;;
75289;SDS011;63883;48.996;20.804;2023-04-06T09:22:15;12.25;;;5.97;;
75289;SDS011;63883;48.996;20.804;2023-04-06T09:24:45;11.32;;;6.35;;
75289;SDS011;63883;48.996;20.804;2023-04-06T09:27:12;11.60;;;6.13;;
75289;SDS011;63883;48.996;20.804;2023-04-06T09:29:39;10.32;;;5.93;;
75289;SDS011;63883;48.996;20.804;2023-04-06T09:32:07;10.95;;;6.60;;
75289;SDS011;63883;48.996;20.804;2023-04-06T09:34:36;12.10;;;6.85;;
75289;SDS011;63883;48.996;20.804;2023-04-06T09:37:14;15.93;;;7.90;;
75289;SDS011;63883;48.996;20.804;2023-04-06T09:39:40;20.38;;;8.65;;
75289;SDS011;63883;48.996;20.804;2023-04-06T09:42:06;15.93;;;7.72;;
75289;SDS011;63883;48.996;20.804;2023-04-06T09:44:32;13.95;;;7.82;;
75289;SDS011;63883;48.996;20.804;2023-04-06T09:46:58;11.45;;;6.45;;
75289;SDS011;63883;48.996;20.804;2023-04-06T09:49:23;14.98;;;6.80;;
75289;SDS011;63883;48.996;20.804;2023-04-06T09:51:56;11.10;;;6.25;;
75289;SDS011;63883;48.996;20.804;2023-04-06T09:54:25;13.13;;;6.95;;
75289;SDS011;63883;48.996;20.804;2023-04-06T09:57:03;13.98;;;7.70;;
75289;SDS011;63883;48.996;20.804;2023-04-06T10:00:04;12.23;;;6.55;;
75289;SDS011;63883;48.996;20.804;2023-04-06T10:07:59;14.20;;;7.53;;
75289;SDS011;63883;48.996;20.804;2023-04-06T10:10:29;10.63;;;6.28;;
75289;SDS011;63883;48.996;20.804;2023-04-06T10:12:56;40.65;;;16.85;;
75289;SDS011;63883;48.996;20.804;2023-04-06T10:15:22;16.85;;;8.38;;
75289;SDS011;63883;48.996;20.804;2023-04-06T10:17:49;9.27;;;5.18;;
75289;SDS011;63883;48.996;20.804;2023-04-06T10:20:18;29.13;;;11.63;;
75289;SDS011;63883;48.996;20.804;2023-04-06T10:22:53;32.20;;;12.35;;
75289;SDS011;63883;48.996;20.804;2023-04-06T10:25:27;65.13;;;23.95;;
75289;SDS011;63883;48.996;20.804;2023-04-06T10:28:01;33.45;;;14.80;;
75289;SDS011;63883;48.996;20.804;2023-04-06T10:30:41;20.60;;;8.65;;
75289;SDS011;63883;48.996;20.804;2023-04-06T10:33:18;29.08;;;11.82;;
75289;SDS011;63883;48.996;20.804;2023-04-06T10:35:45;9.50;;;6.20;;
75289;SDS011;63883;48.996;20.804;2023-04-06T10:38:12;11.43;;;5.53;;
75289;SDS011;63883;48.996;20.804;2023-04-06T10:40:40;9.77;;;5.57;;
75289;SDS011;63883;48.996;20.804;2023-04-06T10:43:09;25.65;;;10.80;;
75289;SDS011;63883;48.996;20.804;2023-04-06T10:45:37;11.85;;;6.05;;
75289;SDS011;63883;48.996;20.804;2023-04-06T10:48:17;9.25;;;5.78;;
75289;SDS011;63883;48.996;20.804;2023-04-06T10:50:50;9.52;;;5.40;;
75289;SDS011;63883;48.996;20.804;2023-04-06T10:53:23;9.48;;;4.97;;
75289;SDS011;63883;48.996;20.804;2023-04-06T10:55:55;10.80;;;5.45;;
75289;SDS011;63883;48.996;20.804;2023-04-06T10:58:26;13.75;;;6.60;;
75289;SDS011;63883;48.996;20.804;2023-04-06T11:00:52;11.18;;;6.13;;
75289;SDS011;63883;48.996;20.804;2023-04-06T11:05:47;20.95;;;13.32;;
75289;SDS011;63883;48.996;20.804;2023-04-06T11:08:33;12.73;;;7.60;;
75289;SDS011;63883;48.996;20.804;2023-04-06T11:11:12;10.10;;;5.85;;
75289;SDS011;63883;48.996;20.804;2023-04-06T11:13:44;9.60;;;5.95;;
75289;SDS011;63883;48.996;20.804;2023-04-06T11:16:18;10.68;;;5.78;;
75289;SDS011;63883;48.996;20.804;2023-04-06T11:18:56;12.18;;;6.25;;
75289;SDS011;63883;48.996;20.804;2023-04-06T11:24:10;9.50;;;5.65;;
75289;SDS011;63883;48.996;20.804;2023-04-06T11:26:47;10.00;;;5.75;;
75289;SDS011;63883;48.996;20.804;2023-04-06T11:29:20;9.50;;;5.75;;
75289;SDS011;63883;48.996;20.804;2023-04-06T11:31:51;10.07;;;6.03;;
75289;SDS011;63883;48.996;20.804;2023-04-06T11:34:28;11.23;;;5.07;;
75289;SDS011;63883;48.996;20.804;2023-04-06T11:36:55;11.05;;;5.80;;
75289;SDS011;63883;48.996;20.804;2023-04-06T11:39:23;8.38;;;5.32;;
75289;SDS011;63883;48.996;20.804;2023-04-06T11:41:50;8.50;;;5.30;;
75289;SDS011;63883;48.996;20.804;2023-04-06T11:44:33;10.70;;;5.50;;
75289;SDS011;63883;48.996;20.804;2023-04-06T11:47:08;8.30;;;5.25;;
75289;SDS011;63883;48.996;20.804;2023-04-06T11:49:39;8.25;;;5.75;;
75289;SDS011;63883;48.996;20.804;2023-04-06T11:52:16;9.57;;;5.53;;
75289;SDS011;63883;48.996;20.804;2023-04-06T11:54:45;8.60;;;5.60;;
75289;SDS011;63883;48.996;20.804;2023-04-06T11:57:12;8.35;;;5.10;;
75289;SDS011;63883;48.996;20.804;2023-04-06T11:59:38;10.02;;;5.88;;
75289;SDS011;63883;48.996;20.804;2023-04-06T12:02:04;9.98;;;6.25;;
75289;SDS011;63883;48.996;20.804;2023-04-06T12:04:31;9.68;;;5.80;;
75289;SDS011;63883;48.996;20.804;2023-04-06T12:06:56;10.13;;;5.85;;
75289;SDS011;63883;48.996;20.804;2023-04-06T12:09:23;10.90;;;5.88;;
75289;SDS011;63883;48.996;20.804;2023-04-06T12:11:48;10.25;;;5.88;;
75289;SDS011;63883;48.996;20.804;2023-04-06T12:14:14;10.02;;;6.00;;
75289;SDS011;63883;48.996;20.804;2023-04-06T12:16:41;9.32;;;5.45;;
75289;SDS011;63883;48.996;20.804;2023-04-06T12:19:07;9.32;;;5.07;;
75289;SDS011;63883;48.996;20.804;2023-04-06T12:21:33;10.80;;;5.80;;
75289;SDS011;63883;48.996;20.804;2023-04-06T12:24:02;10.48;;;6.45;;
75289;SDS011;63883;48.996;20.804;2023-04-06T12:26:29;9.35;;;5.85;;
75289;SDS011;63883;48.996;20.804;2023-04-06T12:28:55;11.40;;;6.65;;
75289;SDS011;63883;48.996;20.804;2023-04-06T12:31:21;11.07;;;6.45;;
75289;SDS011;63883;48.996;20.804;2023-04-06T12:33:48;11.20;;;6.50;;
75289;SDS011;63883;48.996;20.804;2023-04-06T12:36:15;10.75;;;6.10;;
75289;SDS011;63883;48.996;20.804;2023-04-06T12:38:48;12.45;;;6.50;;
75289;SDS011;63883;48.996;20.804;2023-04-06T12:41:14;10.05;;;6.28;;
75289;SDS011;63883;48.996;20.804;2023-04-06T12:43:40;10.77;;;6.40;;
75289;SDS011;63883;48.996;20.804;2023-04-06T12:46:07;10.82;;;6.32;;
75289;SDS011;63883;48.996;20.804;2023-04-06T12:48:33;10.38;;;6.20;;
75289;SDS011;63883;48.996;20.804;2023-04-06T12:50:59;11.50;;;6.68;;
75289;SDS011;63883;48.996;20.804;2023-04-06T12:53:27;13.00;;;7.68;;
75289;SDS011;63883;48.996;20.804;2023-04-06T12:55:53;12.60;;;7.20;;
75289;SDS011;63883;48.996;20.804;2023-04-06T12:58:20;10.85;;;7.15;;
75289;SDS011;63883;48.996;20.804;2023-04-06T13:00:49;12.70;;;7.57;;
75289;SDS011;63883;48.996;20.804;2023-04-06T13:03:18;14.95;;;7.43;;
75289;SDS011;63883;48.996;20.804;2023-04-06T13:05:49;14.55;;;7.10;;
75289;SDS011;63883;48.996;20.804;2023-04-06T13:08:16;13.23;;;7.25;;
75289;SDS011;63883;48.996;20.804;2023-04-06T13:10:43;10.80;;;7.00;;
75289;SDS011;63883;48.996;20.804;2023-04-06T13:13:10;11.52;;;6.72;;
75289;SDS011;63883;48.996;20.804;2023-04-06T13:15:35;10.95;;;6.68;;
75289;SDS011;63883;48.996;20.804;2023-04-06T13:18:02;10.80;;;6.65;;
75289;SDS011;63883;48.996;20.804;2023-04-06T13:20:28;10.18;;;5.95;;
75289;SDS011;63883;48.996;20.804;2023-04-06T13:22:54;9.20;;;5.90;;
75289;SDS011;63883;48.996;20.804;2023-04-06T13:25:20;9.27;;;6.07;;
75289;SDS011;63883;48.996;20.804;2023-04-06T13:27:45;10.95;;;6.43;;
75289;SDS011;63883;48.996;20.804;2023-04-06T13:30:13;9.27;;;5.68;;
75289;SDS011;63883;48.996;20.804;2023-04-06T13:32:39;8.52;;;5.50;;
75289;SDS011;63883;48.996;20.804;2023-04-06T13:35:05;9.52;;;5.53;;
75289;SDS011;63883;48.996;20.804;2023-04-06T13:37:32;10.38;;;6.22;;
75289;SDS011;63883;48.996;20.804;2023-04-06T13:39:58;9.35;;;5.50;;
75289;SDS011;63883;48.996;20.804;2023-04-06T13:42:24;10.25;;;5.88;;
75289;SDS011;63883;48.996;20.804;2023-04-06T13:44:51;11.65;;;7.35;;
75289;SDS011;63883;48.996;20.804;2023-04-06T13:47:18;15.43;;;8.05;;
75289;SDS011;63883;48.996;20.804;2023-04-06T13:49:44;14.57;;;9.00;;
75289;SDS011;63883;48.996;20.804;2023-04-06T13:52:10;9.63;;;6.03;;
75289;SDS011;63883;48.996;20.804;2023-04-06T13:54:36;10.73;;;6.28;;
75289;SDS011;63883;48.996;20.804;2023-04-06T13:57:02;19.58;;;10.48;;
75289;SDS011;63883;48.996;20.804;2023-04-06T13:59:37;16.60;;;9.63;;
75289;SDS011;63883;48.996;20.804;2023-04-06T14:02:04;12.90;;;7.10;;
75289;SDS011;63883;48.996;20.804;2023-04-06T14:04:31;9.00;;;5.38;;
75289;SDS011;63883;48.996;20.804;2023-04-06T14:06:58;11.10;;;6.15;;
75289;SDS011;63883;48.996;20.804;2023-04-06T14:09:24;16.20;;;8.75;;
75289;SDS011;63883;48.996;20.804;2023-04-06T14:11:50;33.63;;;19.25;;
75289;SDS011;63883;48.996;20.804;2023-04-06T14:14:16;11.07;;;6.63;;
75289;SDS011;63883;48.996;20.804;2023-04-06T14:16:43;11.10;;;6.00;;
75289;SDS011;63883;48.996;20.804;2023-04-06T14:19:11;8.68;;;5.63;;
75289;SDS011;63883;48.996;20.804;2023-04-06T14:21:38;17.55;;;9.05;;
75289;SDS011;63883;48.996;20.804;2023-04-06T14:24:05;14.82;;;7.93;;
75289;SDS011;63883;48.996;20.804;2023-04-06T14:26:32;9.88;;;6.22;;
75289;SDS011;63883;48.996;20.804;2023-04-06T14:28:58;13.00;;;8.10;;
75289;SDS011;63883;48.996;20.804;2023-04-06T14:31:25;9.15;;;5.68;;
75289;SDS011;63883;48.996;20.804;2023-04-06T14:33:51;12.50;;;7.38;;
75289;SDS011;63883;48.996;20.804;2023-04-06T14:36:17;8.75;;;5.50;;
75289;SDS011;63883;48.996;20.804;2023-04-06T14:38:43;7.00;;;4.75;;
75289;SDS011;63883;48.996;20.804;2023-04-06T14:41:15;7.90;;;4.78;;